Αναφορές Αεροδρομίων

 

KSJC - San Jose, California, USA
Distance from station: ΒΑ 14km
Ενημερώθηκε: 19/08/2019 01:53
Few Clouds
Few Clouds
 Ανεμος από ΝΝΔ
Ανεμος: ΝΝΔ 24 km/h
Θερμοκρασία: 25°C
Σημείο Δρόσου: 13°C
Υγρασία: 47%
Βαρόμετρο: 1010.8 hPa
Clouds: Few Clouds
Visibility: 16 km
Cloud details: Few Clouds 152 m
Few Clouds 488 m
Few Clouds 701 m
2019/08/18 22:53 KSJC 182253Z 20013KT 10SM FEW005 FEW016 FEW023 25/13 A2985 RMK AO2 SLP105 T02500133 $
KNUQ - Moffett Nas/Mtn, California, USA
Distance from station: Β 14km
Ενημερώθηκε: 19/08/2019 01:56
Αίθριος
Αίθριος
 Ανεμος από varies
Ανεμος: varies 9 km/h
Θερμοκρασία: 28°C
Heat Index: 28°C
Σημείο Δρόσου: 14°C
Υγρασία: 42%
Βαρόμετρο: 1010.8 hPa
Clouds: Αίθριος
Visibility: 16 km
2019/08/18 22:56 KNUQ 182256Z VRB05KT 10SM CLR 28/14 A2985 RMK AO2 SLP109 T02780139
 
KPAO - Palo Alto, California, USA
Distance from station: ΒΒΔ 23km
Ενημερώθηκε: 19/08/2019 01:47
Αίθριος
Αίθριος
 Ανεμος από Δ
Ανεμος: Δ 19 km/h
Θερμοκρασία: 26°C
Σημείο Δρόσου: 14°C
Υγρασία: 48%
Βαρόμετρο: 1010.8 hPa
Clouds: Αίθριος
Visibility: 16 km
2019/08/18 22:47 KPAO 182247Z 26010KT 10SM SKC 26/14 A2985
KRHV - San Jose/Reid, California, USA
Distance from station: ΑΒΑ 19km
Ενημερώθηκε: 19/08/2019 01:50
Αίθριος
Αίθριος
 Ανεμος από ΔΝΔ
Ανεμος: ΔΝΔ 17 km/h
Θερμοκρασία: 26°C
Σημείο Δρόσου: 14°C
Υγρασία: 48%
Βαρόμετρο: 1010.8 hPa
Clouds: Αίθριος
Visibility: 16 km
2019/08/18 22:50 KRHV 182250Z 25009KT 10SM SKC 26/14 A2985
 
KOAK - Oakland, California, USA
Distance from station: ΒΒΔ 50km
Ενημερώθηκε: 19/08/2019 01:53
Few Clouds
Few Clouds
 Ανεμος από ΝΔ
Ανεμος: ΝΔ 24 km/h
Θερμοκρασία: 24°C
Σημείο Δρόσου: 14°C
Υγρασία: 54%
Βαρόμετρο: 1011.2 hPa
Clouds: Few Clouds
Visibility: 16 km
Cloud details: Few Clouds 305 m
2019/08/18 22:53 KOAK 182253Z 23013KT 10SM FEW010 24/14 A2986 RMK AO2 SLP112 T02390139
KSQL - San Carlos Airpo, California, USA
Distance from station: ΒΔ 34km
Ενημερώθηκε: 19/08/2019 01:53
Αίθριος
Αίθριος
 Ανεμος από ΑΝΑ
Ανεμος: ΑΝΑ 9 km/h
Θερμοκρασία: 25°C
Σημείο Δρόσου: 14°C
Υγρασία: 51%
Βαρόμετρο: 1011.2 hPa
Clouds: Αίθριος
Visibility: 16 km
2019/08/18 22:53 KSQL 182253Z 11005KT 10SM SKC 25/14 A2986
 
KSFO - San Francisco, California, USA
Distance from station: ΒΔ 49km
Ενημερώθηκε: 19/08/2019 01:56
Few Clouds
Few Clouds
 Ανεμος από ΝΝΔ
Ανεμος: ΝΝΔ 30 km/h
Θερμοκρασία: 23°C
Σημείο Δρόσου: 13°C
Υγρασία: 53%
Βαρόμετρο: 1011.2 hPa
Clouds: Few Clouds
Visibility: 16 km
Cloud details: Few Clouds 457 m
2019/08/18 22:56 KSFO 182256Z 21016KT 10SM FEW015 23/13 A2986 RMK AO2 SLP112 T02330128
KE16 - San Martin, California, USA
Distance from station: ΑΝΑ 43km
Ενημερώθηκε: 05/08/2019 20:10
NOT Current
Αίθριος
Αίθριος
 Ανεμος από ΑΝΑ
Ανεμος: ΑΝΑ 19 km/h
Θερμοκρασία: 19°C
Σημείο Δρόσου: 14°C
Υγρασία: 73%
Βαρόμετρο: 1016.9 hPa
Clouds: Αίθριος
Visibility: 16 km
2019/08/05 17:10 KE16 051710Z AUTO 12010KT 10SM CLR 19/14 A3003 RMK AO2
 
KWVI - Watsonville, California, USA
Distance from station: ΝΝΑ 44km
Ενημερώθηκε: 19/08/2019 01:53
Σχεδόν νεφελώδης
Σχεδόν νεφελώδης
 Ανεμος από Δ
Ανεμος: Δ 17 km/h
Θερμοκρασία: 20°C
Σημείο Δρόσου: 13°C
Υγρασία: 64%
Βαρόμετρο: 1013.5 hPa
Clouds: Σχεδόν νεφελώδης
Visibility: 16 km
Cloud details: Σχεδόν νεφελώδης 457 m
2019/08/18 22:53 KWVI 182253Z AUTO 26009KT 10SM BKN015 20/13 A2993 RMK AO2 SLP136 T02000133
KHAF - Half Moon Bay, California, USA
Distance from station: ΔΒΔ 50km
Ενημερώθηκε: 19/08/2019 02:15
Mist, Συννεφιά
Mist, Συννεφιά
 Ανεμος από Ν
Ανεμος: Ν 19 km/h, Ριπή: 28 km/h
Θερμοκρασία: 15°C
Σημείο Δρόσου: 14°C
Υγρασία: 94%
Βαρόμετρο: 1013.2 hPa
Περίληψη: Mist
Clouds: Συννεφιά
Visibility: 5 km
Cloud details: Συννεφιά 183 m
2019/08/18 23:15 KHAF 182315Z AUTO 19010G15KT 3SM BR OVC006 15/14 A2992 RMK AO2
 
KHWD - Hayward, California, USA
Distance from station: Β 44km
Ενημερώθηκε: 19/08/2019 01:54
Αίθριος
Αίθριος
 Ανεμος από Δ
Ανεμος: Δ 22 km/h
Θερμοκρασία: 23°C
Σημείο Δρόσου: 14°C
Υγρασία: 57%
Βαρόμετρο: 1011.2 hPa
Clouds: Αίθριος
Visibility: 16 km
2019/08/18 22:54 KHWD 182254Z 26012KT 10SM CLR 23/14 A2986 RMK AO2 SLP120 T02330144
KLVK - Livermore, California, USA
Distance from station: ΒΒΑ 51km
Ενημερώθηκε: 19/08/2019 01:53
Αίθριος
Αίθριος
 Ανεμος από Δ
Ανεμος: Δ 20 km/h
Θερμοκρασία: 28°C
Heat Index: 28°C
Σημείο Δρόσου: 14°C
Υγρασία: 42%
Βαρόμετρο: 1010.2 hPa
Clouds: Αίθριος
Visibility: 16 km
2019/08/18 22:53 KLVK 182253Z AUTO 28011KT 10SM CLR 28/14 A2983 RMK AO2 SLP096 T02830144 $